PANC/ANC METAR and TAF weather

Enter ICAO airport designator
Station Type Date Time Source
PANC METAR 2019/08/25 17:53 UTC NOAA

PANC 251753Z 06003KT 8SM SCT040 BKN110 16/09 A2991 RMK AO2 SLP129 FU SCT040 T01560089 10161 20106 51010


Station Type Date Time Source
PANC Decoded METAR 2019/08/25 17:53 UTC NOAA

Station name not available
Aug 25, 2019 - 01:53 PM EDT / 2019.08.25 1753 UTC
Wind: from the ENE (060 degrees) at 3 MPH (3 KT):0
Visibility: 8 mile(s):0
Sky conditions: mostly cloudy
Temperature: 60.1 F (15.6 C)
Dew Point: 48.0 F (8.9 C)
Relative Humidity: 64%
Pressure (altimeter): 29.91 in. Hg (1012 hPa)
Pressure tendency: 0.03 inches (1.0 hPa) higher than three hours ago
ob: PANC 251753Z 06003KT 8SM SCT040 BKN110 16/09 A2991 RMK AO2 SLP129 FU SCT040 T01560089 10161 20106 51010
cycle: 18

Station Type Date Time Source
PANC TAF 2019/08/25 18:39 UTC NOAA

TAF PANC 251736Z 2518/2624 14006KT P6SM FEW040 OVC110
FM252300 16012G24KT 6SM FU VCSH FEW003 SCT050 OVC100
FM260900 14005KT P6SM BKN050
FM261500 VRB05KT P6SM BKN070

Example: see airport list